createdAt,value
2018-06-02T00:01:27.195Z,38
2018-06-02T00:11:30.952Z,36
2018-06-02T00:21:28.490Z,38
2018-06-02T00:31:28.887Z,37
2018-06-02T00:41:31.245Z,36
2018-06-02T00:51:27.137Z,36
2018-06-02T01:01:26.961Z,39
2018-06-02T01:11:28.456Z,37
2018-06-02T01:21:28.913Z,38
2018-06-02T01:31:26.664Z,37
2018-06-02T01:41:29.562Z,36
2018-06-02T01:51:29.629Z,37
2018-06-02T02:01:27.450Z,37
2018-06-02T02:11:27.246Z,38
2018-06-02T02:21:29.165Z,37
2018-06-02T02:31:26.972Z,37
2018-06-02T02:41:27.917Z,37
2018-06-02T02:51:28.352Z,38
2018-06-02T03:01:27.528Z,38
2018-06-02T03:11:27.165Z,37
2018-06-02T03:21:27.686Z,39
2018-06-02T03:31:29.404Z,37
2018-06-02T03:41:28.283Z,37
2018-06-02T03:51:28.259Z,37
2018-06-02T04:01:28.776Z,37
2018-06-02T04:11:28.665Z,37
2018-06-02T04:21:29.366Z,37
2018-06-02T04:31:27.344Z,39
2018-06-02T04:41:29.899Z,37
2018-06-02T04:51:28.434Z,37
2018-06-02T05:01:29.225Z,37
2018-06-02T05:11:28.684Z,37
2018-06-02T05:21:26.711Z,37
2018-06-02T05:31:28.482Z,37
2018-06-02T05:41:28.587Z,39
2018-06-02T05:51:28.076Z,38
2018-06-02T06:01:27.572Z,38
2018-06-02T06:11:27.757Z,39
2018-06-02T06:21:26.895Z,38
2018-06-02T06:31:28.013Z,37
2018-06-02T06:41:26.904Z,36
2018-06-02T06:51:27.618Z,38
2018-06-02T07:01:27.555Z,36
2018-06-02T07:11:28.886Z,36
2018-06-02T07:21:27.151Z,36
2018-06-02T07:31:29.142Z,36
2018-06-02T07:41:27.987Z,36
2018-06-02T07:51:26.736Z,36
2018-06-02T08:01:27.921Z,38
2018-06-02T08:11:27.689Z,36
2018-06-02T08:21:26.876Z,36
2018-06-02T08:31:27.756Z,38
2018-06-02T08:41:28.730Z,35
2018-06-02T08:51:27.676Z,36
2018-06-02T09:01:27.650Z,38
2018-06-02T09:11:28.821Z,35
2018-06-02T09:21:29.131Z,35
2018-06-02T09:31:26.982Z,35
2018-06-02T09:41:28.332Z,35
2018-06-02T09:51:28.186Z,35
2018-06-02T10:01:27.004Z,35
2018-06-02T10:11:26.964Z,37
2018-06-02T10:21:27.453Z,37
2018-06-02T10:31:28.229Z,35
2018-06-02T10:41:27.188Z,35
2018-06-02T10:51:28.210Z,35
2018-06-02T11:01:27.152Z,35
2018-06-02T11:11:27.029Z,36
2018-06-02T11:21:27.631Z,36
2018-06-02T11:31:28.516Z,35
2018-06-02T11:41:27.424Z,35
2018-06-02T11:51:28.198Z,35
2018-06-02T12:01:28.542Z,35
2018-06-02T12:11:27.485Z,35
2018-06-02T12:21:29.325Z,35
2018-06-02T12:31:27.916Z,35
2018-06-02T12:41:27.988Z,36
2018-06-02T12:51:26.882Z,36
2018-06-02T13:01:26.893Z,37
2018-06-02T13:11:26.869Z,37
2018-06-02T13:21:27.412Z,38
2018-06-02T13:31:28.140Z,37
2018-06-02T13:41:27.555Z,36
2018-06-02T13:51:27.988Z,37
2018-06-02T14:01:27.223Z,37
2018-06-02T14:11:27.915Z,37
2018-06-02T14:21:27.288Z,38
2018-06-02T14:31:27.166Z,38
2018-06-02T14:41:27.931Z,37
2018-06-02T14:51:26.985Z,37
2018-06-02T15:01:27.161Z,40
2018-06-02T15:11:26.931Z,37
2018-06-02T15:21:27.196Z,39
2018-06-02T15:31:27.268Z,40
2018-06-02T15:41:30.073Z,37
2018-06-02T15:51:26.806Z,38
2018-06-02T16:01:29.134Z,37
2018-06-02T16:11:26.946Z,38
2018-06-02T16:21:28.060Z,38
2018-06-02T16:31:29.554Z,38
2018-06-02T16:41:27.491Z,38
2018-06-02T16:51:27.298Z,41
2018-06-02T17:01:27.717Z,39
2018-06-02T17:11:27.836Z,41
2018-06-02T17:21:27.474Z,39
2018-06-02T17:31:27.591Z,41
2018-06-02T17:41:27.699Z,42
2018-06-02T17:51:28.891Z,39
2018-06-02T18:01:28.728Z,38
2018-06-02T18:11:28.418Z,39
2018-06-02T18:21:27.485Z,40
2018-06-02T18:31:27.232Z,42
2018-06-02T18:41:27.890Z,39
2018-06-02T18:51:28.810Z,40
2018-06-02T19:01:27.495Z,40
2018-06-02T19:11:27.255Z,43
2018-06-02T19:21:28.138Z,40
2018-06-02T19:31:28.214Z,41
2018-06-02T19:41:27.205Z,40
2018-06-02T19:51:28.094Z,43
2018-06-02T20:01:27.913Z,42
2018-06-02T20:11:27.374Z,42
2018-06-02T20:21:28.258Z,41
2018-06-02T20:31:28.157Z,42
2018-06-02T20:41:28.375Z,44
2018-06-02T20:51:28.961Z,42
2018-06-02T21:01:29.331Z,41
2018-06-02T21:11:28.572Z,42
2018-06-02T21:21:27.585Z,42
2018-06-02T21:31:27.926Z,43
2018-06-02T21:41:26.805Z,42
2018-06-02T21:51:30.506Z,41
2018-06-02T22:01:28.469Z,42
2018-06-02T22:11:28.618Z,44
2018-06-02T22:21:28.848Z,47
2018-06-02T22:31:28.693Z,45
2018-06-02T22:41:28.529Z,47
2018-06-02T22:51:28.854Z,43
2018-06-02T23:01:27.737Z,43
2018-06-02T23:11:29.994Z,43
2018-06-02T23:21:27.218Z,44
2018-06-02T23:31:30.061Z,44
2018-06-02T23:41:28.187Z,47
2018-06-02T23:51:29.448Z,43
